Time;durP1;ratioP1;P1;durP2;ratioP2;P2;SDS_P1;SDS_P2;PMS_P1;PMS_P2;Temp;Humidity;BMP_temperature;BMP_pressure;BME280_temperature;BME280_humidity;BME280_pressure;Samples;Min_cycle;Max_cycle;Signal;HPM_P1;HPM_P2
2023/12/10 00:00:48;;;;;;;21.15;4.00;;;8.60;99.90;;;;;;5002114;28;20050;-34
2023/12/10 00:03:13;;;;;;;17.52;3.63;;;8.60;99.90;;;;;;5002115;28;20069;-34
2023/12/10 00:05:39;;;;;;;24.88;3.92;;;8.60;99.90;;;;;;5002152;28;20046;-34
2023/12/10 00:08:05;;;;;;;22.30;3.60;;;8.60;99.90;;;;;;5002604;28;20042;-34
2023/12/10 00:10:30;;;;;;;19.50;3.78;;;8.60;99.90;;;;;;5000490;28;20133;-34
2023/12/10 00:12:56;;;;;;;20.83;4.18;;;8.50;99.90;;;;;;5002756;28;20050;-35
2023/12/10 00:15:22;;;;;;;16.63;3.63;;;8.50;99.90;;;;;;5005837;28;20064;-34
2023/12/10 00:17:47;;;;;;;23.27;4.78;;;8.50;99.90;;;;;;5003803;28;20103;-34
2023/12/10 00:20:14;;;;;;;16.88;3.67;;;8.60;99.90;;;;;;5007892;28;20045;-34
2023/12/10 00:22:39;;;;;;;23.20;4.10;;;8.60;99.90;;;;;;5007333;28;20504;-38
2023/12/10 00:25:06;;;;;;;19.02;3.53;;;8.60;99.90;;;;;;5005762;28;20069;-34
2023/12/10 00:27:31;;;;;;;21.38;4.05;;;8.60;99.90;;;;;;5004071;28;20057;-34
2023/12/10 00:29:57;;;;;;;21.08;4.00;;;8.70;99.90;;;;;;5003712;28;20050;-34
2023/12/10 00:32:23;;;;;;;16.17;2.60;;;8.70;99.90;;;;;;5002310;28;20096;-34
2023/12/10 00:34:49;;;;;;;13.55;2.85;;;8.60;99.90;;;;;;5001517;28;20116;-34
2023/12/10 00:37:14;;;;;;;11.45;2.88;;;8.50;99.90;;;;;;5001889;28;20096;-34
2023/12/10 00:39:40;;;;;;;14.30;2.95;;;8.40;99.90;;;;;;5001321;28;20073;-50
2023/12/10 00:42:06;;;;;;;18.00;3.15;;;8.30;99.90;;;;;;5002846;28;20046;-34
2023/12/10 00:44:32;;;;;;;12.63;2.92;;;8.20;99.90;;;;;;5003106;28;20084;-44
2023/12/10 00:46:57;;;;;;;16.73;3.30;;;8.10;99.90;;;;;;5002781;28;20049;-35
2023/12/10 00:49:23;;;;;;;17.27;2.95;;;8.00;99.90;;;;;;5002808;28;20510;-34
2023/12/10 00:51:49;;;;;;;14.85;2.88;;;8.00;99.90;;;;;;4999299;28;20157;-34
2023/12/10 00:54:15;;;;;;;16.13;2.70;;;8.00;99.90;;;;;;5005492;28;20054;-39
2023/12/10 00:56:41;;;;;;;12.95;2.92;;;8.00;99.90;;;;;;5001847;28;20265;-36
2023/12/10 00:59:08;;;;;;;16.80;3.38;;;8.00;99.90;;;;;;5002850;28;20073;-34
2023/12/10 01:01:33;;;;;;;13.25;2.70;;;8.00;99.90;;;;;;5000591;28;20068;-34
2023/12/10 01:03:59;;;;;;;18.38;3.78;;;8.00;99.90;;;;;;5000316;28;20431;-35
2023/12/10 01:06:25;;;;;;;14.82;2.55;;;8.00;99.90;;;;;;5003530;28;20184;-34
2023/12/10 01:08:50;;;;;;;16.67;3.03;;;8.00;99.90;;;;;;5002318;28;20775;-34
2023/12/10 01:11:16;;;;;;;21.98;3.90;;;7.90;99.90;;;;;;5000273;28;20404;-34
2023/12/10 01:13:42;;;;;;;17.85;3.15;;;7.90;99.90;;;;;;5002166;28;20046;-34
2023/12/10 01:16:08;;;;;;;17.30;2.83;;;7.90;99.90;;;;;;5006335;28;20057;-34
2023/12/10 01:18:37;;;;;;;16.08;2.92;;;7.90;99.90;;;;;;5003881;28;20046;-35
2023/12/10 01:21:03;;;;;;;13.82;2.42;;;7.90;99.90;;;;;;5005653;28;20049;-34
2023/12/10 01:23:29;;;;;;;18.50;3.25;;;7.90;99.90;;;;;;5004613;28;20514;-36
2023/12/10 01:25:55;;;;;;;17.13;3.63;;;7.80;99.90;;;;;;5004594;28;20345;-34
2023/12/10 01:28:20;;;;;;;14.57;3.00;;;7.80;99.90;;;;;;5006649;28;20042;-34
2023/12/10 01:30:46;;;;;;;18.83;3.50;;;7.80;99.90;;;;;;5004665;28;20045;-34
2023/12/10 01:33:12;;;;;;;16.58;3.08;;;7.80;99.90;;;;;;5006401;28;20081;-45
2023/12/10 01:35:38;;;;;;;19.25;3.25;;;7.80;99.90;;;;;;5008500;28;20046;-39
2023/12/10 01:38:03;;;;;;;22.63;3.08;;;7.80;99.90;;;;;;5009392;28;20073;-34
2023/12/10 01:40:29;;;;;;;18.27;3.08;;;7.80;99.90;;;;;;5004901;28;20054;-35
2023/12/10 01:42:55;;;;;;;20.40;3.20;;;7.90;99.90;;;;;;5003612;28;20133;-34
2023/12/10 01:45:20;;;;;;;24.40;3.85;;;7.80;99.90;;;;;;5006871;28;20458;-34
2023/12/10 01:47:51;;;;;;;16.08;3.33;;;7.90;99.90;;;;;;5002572;28;20112;-34
2023/12/10 01:50:18;;;;;;;19.95;3.53;;;7.90;99.90;;;;;;5009424;28;20087;-34
2023/12/10 01:52:47;;;;;;;20.80;3.60;;;7.90;99.90;;;;;;5003816;28;20515;-49
2023/12/10 01:55:13;;;;;;;20.00;3.17;;;7.90;99.90;;;;;;5007812;28;20055;-35
2023/12/10 01:57:39;;;;;;;20.48;3.50;;;7.80;99.90;;;;;;5004281;28;20054;-35
2023/12/10 02:00:06;;;;;;;17.33;3.30;;;7.80;99.90;;;;;;5003927;28;20045;-34
2023/12/10 02:02:33;;;;;;;18.73;3.08;;;7.80;99.90;;;;;;5005526;28;20081;-35
2023/12/10 02:05:05;;;;;;;25.63;4.18;;;7.80;99.90;;;;;;5005330;28;20054;-34
2023/12/10 02:07:31;;;;;;;19.80;3.28;;;7.80;99.90;;;;;;5008606;28;20046;-34
2023/12/10 02:09:57;;;;;;;20.45;3.05;;;7.80;99.90;;;;;;5003080;28;20137;-35
2023/12/10 02:12:23;;;;;;;18.90;3.38;;;7.80;99.90;;;;;;5006244;28;20140;-38
2023/12/10 02:14:49;;;;;;;21.52;3.83;;;7.80;99.90;;;;;;5002638;28;20423;-35
2023/12/10 02:17:15;;;;;;;19.77;3.75;;;7.80;99.90;;;;;;5002587;28;20046;-34
2023/12/10 02:19:41;;;;;;;25.48;3.97;;;7.70;99.90;;;;;;5004042;28;20065;-35
2023/12/10 02:22:13;;;;;;;24.02;4.22;;;7.80;99.90;;;;;;5001806;28;20058;-34
2023/12/10 02:24:49;;;;;;;24.40;4.03;;;7.80;99.90;;;;;;5001788;28;20117;-34
2023/12/10 02:27:15;;;;;;;20.48;3.45;;;7.80;99.90;;;;;;5004218;28;20058;-35
2023/12/10 02:29:41;;;;;;;21.95;3.17;;;7.70;99.90;;;;;;5001207;28;20049;-34
2023/12/10 02:32:07;;;;;;;20.08;4.20;;;7.80;99.90;;;;;;5003298;28;20397;-34
2023/12/10 02:34:33;;;;;;;23.38;4.70;;;7.70;99.90;;;;;;5002298;28;20054;-40
2023/12/10 02:36:59;;;;;;;26.40;4.50;;;7.70;99.90;;;;;;5005198;28;20132;-44
2023/12/10 02:39:24;;;;;;;23.30;3.95;;;7.70;99.90;;;;;;5007562;28;20054;-35
2023/12/10 02:41:50;;;;;;;23.25;4.32;;;7.70;99.90;;;;;;5004614;28;20049;-34
2023/12/10 02:44:16;;;;;;;26.80;4.00;;;7.70;99.90;;;;;;5006404;28;20078;-35
2023/12/10 02:46:47;;;;;;;27.25;4.78;;;7.70;99.90;;;;;;5004164;28;20702;-42
2023/12/10 02:49:13;;;;;;;23.48;3.60;;;7.70;99.90;;;;;;5007592;28;20050;-34
2023/12/10 02:51:39;;;;;;;21.83;3.95;;;7.60;99.90;;;;;;5007434;28;20046;-34
2023/12/10 02:54:05;;;;;;;19.25;4.13;;;7.60;99.90;;;;;;5006441;28;20054;-34
2023/12/10 02:56:31;;;;;;;20.52;3.22;;;7.60;99.90;;;;;;5006903;28;20393;-34
2023/12/10 02:58:57;;;;;;;22.23;3.08;;;7.60;99.90;;;;;;5005869;28;20112;-34
2023/12/10 03:01:22;;;;;;;22.13;3.90;;;7.60;99.90;;;;;;5006361;28;20062;-34
2023/12/10 03:03:48;;;;;;;15.15;2.97;;;7.60;99.90;;;;;;5005263;28;20142;-34
2023/12/10 03:06:14;;;;;;;19.58;3.40;;;7.60;99.90;;;;;;5000693;28;20471;-35
2023/12/10 03:08:40;;;;;;;26.90;3.90;;;7.60;99.90;;;;;;5006055;28;20515;-35
2023/12/10 03:11:05;;;;;;;21.13;3.30;;;7.60;99.90;;;;;;5004488;28;20054;-60
2023/12/10 03:13:31;;;;;;;23.00;3.42;;;7.60;99.90;;;;;;5008113;28;20097;-34
2023/12/10 03:15:57;;;;;;;17.25;3.53;;;7.60;99.90;;;;;;5004234;28;20108;-35
2023/12/10 03:18:23;;;;;;;12.45;2.38;;;7.60;99.90;;;;;;5005508;28;20049;-43
2023/12/10 03:20:48;;;;;;;22.15;3.63;;;7.60;99.90;;;;;;5001463;28;20058;-34
2023/12/10 03:23:14;;;;;;;19.90;3.30;;;7.60;99.90;;;;;;5005808;28;20050;-35
2023/12/10 03:25:40;;;;;;;19.95;3.30;;;7.60;99.90;;;;;;5007325;28;20076;-34
2023/12/10 03:28:05;;;;;;;18.67;3.75;;;7.60;99.90;;;;;;5005791;28;20664;-35
2023/12/10 03:30:31;;;;;;;25.17;3.58;;;7.60;99.90;;;;;;5006621;28;20674;-34
2023/12/10 03:32:57;;;;;;;21.52;4.05;;;7.60;99.90;;;;;;5003847;28;20164;-34
2023/12/10 03:35:23;;;;;;;19.17;2.85;;;7.60;99.90;;;;;;5004479;28;20062;-39
2023/12/10 03:37:48;;;;;;;16.67;2.90;;;7.60;99.90;;;;;;5004329;28;20474;-34
2023/12/10 03:40:14;;;;;;;17.60;2.92;;;7.60;99.90;;;;;;5004807;28;20140;-34
2023/12/10 03:42:40;;;;;;;23.45;3.70;;;7.60;99.90;;;;;;5005082;28;20049;-35
2023/12/10 03:45:06;;;;;;;29.13;4.00;;;7.60;99.90;;;;;;5007029;28;20049;-34
2023/12/10 03:47:32;;;;;;;27.58;4.40;;;7.60;99.90;;;;;;5006813;28;20050;-55
2023/12/10 03:49:58;;;;;;;31.80;4.55;;;7.60;99.90;;;;;;5008868;28;20048;-34
2023/12/10 03:52:23;;;;;;;25.30;3.72;;;7.50;99.90;;;;;;5005286;28;20064;-36
2023/12/10 03:54:49;;;;;;;22.75;4.20;;;7.50;99.90;;;;;;5006140;28;20057;-34
2023/12/10 03:57:15;;;;;;;23.80;3.40;;;7.50;99.90;;;;;;5006773;28;20045;-34
2023/12/10 03:59:40;;;;;;;21.83;3.97;;;7.60;99.90;;;;;;5006329;28;20048;-34
2023/12/10 04:02:06;;;;;;;23.98;4.05;;;7.50;99.90;;;;;;5005967;28;21778;-36
2023/12/10 04:04:32;;;;;;;19.20;3.63;;;7.60;99.90;;;;;;5006421;28;20400;-34
2023/12/10 04:06:58;;;;;;;20.05;4.22;;;7.60;99.90;;;;;;5003667;28;20290;-39
2023/12/10 04:09:24;;;;;;;25.40;4.07;;;7.60;99.90;;;;;;5006014;28;20085;-34
2023/12/10 04:11:49;;;;;;;24.30;3.42;;;7.60;99.90;;;;;;5005411;28;20084;-34
2023/12/10 04:14:15;;;;;;;23.42;4.18;;;7.70;99.90;;;;;;5005082;28;20502;-35
2023/12/10 04:16:41;;;;;;;21.48;3.42;;;7.70;99.90;;;;;;5004776;28;20056;-34
2023/12/10 04:19:06;;;;;;;21.55;3.60;;;7.70;99.90;;;;;;5001846;28;20152;-34
2023/12/10 04:21:32;;;;;;;20.73;3.72;;;7.70;99.90;;;;;;5007036;28;20810;-35
2023/12/10 04:23:58;;;;;;;20.17;3.10;;;7.70;99.90;;;;;;5001504;28;20058;-34
2023/12/10 04:26:24;;;;;;;31.73;5.32;;;7.70;99.90;;;;;;5005660;28;20045;-35
2023/12/10 04:28:49;;;;;;;25.88;3.67;;;7.70;99.90;;;;;;5004132;28;20057;-34
2023/12/10 04:31:15;;;;;;;22.10;3.88;;;7.70;99.90;;;;;;5005118;28;20046;-34
2023/12/10 04:33:44;;;;;;;21.17;4.00;;;7.80;99.90;;;;;;5003876;28;20046;-34
2023/12/10 04:36:11;;;;;;;26.98;4.07;;;7.80;99.90;;;;;;5002155;28;20058;-34
2023/12/10 04:38:37;;;;;;;21.02;3.80;;;7.80;99.90;;;;;;5004113;28;20045;-35
2023/12/10 04:41:03;;;;;;;23.52;4.72;;;7.80;99.90;;;;;;5000875;28;20109;-35
2023/12/10 04:43:29;;;;;;;23.83;4.38;;;7.80;99.90;;;;;;5003446;28;20062;-34
2023/12/10 04:45:55;;;;;;;24.67;5.18;;;7.80;99.90;;;;;;5001270;28;20034;-34
2023/12/10 04:48:21;;;;;;;21.15;3.88;;;7.80;99.90;;;;;;5005030;28;20046;-34
2023/12/10 04:50:47;;;;;;;33.08;4.97;;;7.80;99.90;;;;;;5005140;28;20069;-34
2023/12/10 04:53:13;;;;;;;26.65;4.95;;;7.70;99.90;;;;;;5005169;28;20086;-34
2023/12/10 04:55:39;;;;;;;29.33;4.78;;;7.70;99.90;;;;;;5001482;28;20618;-35
2023/12/10 04:58:04;;;;;;;24.80;4.85;;;7.70;99.90;;;;;;5003857;28;20049;-35
2023/12/10 05:00:30;;;;;;;28.30;4.75;;;7.80;99.90;;;;;;5002307;28;20080;-34
2023/12/10 05:02:56;;;;;;;30.27;5.60;;;7.70;99.90;;;;;;5003597;28;20459;-35
2023/12/10 05:05:22;;;;;;;27.20;4.78;;;7.70;99.90;;;;;;5002063;28;20045;-34
2023/12/10 05:07:47;;;;;;;26.88;4.50;;;7.70;99.90;;;;;;5005536;28;20045;-35
2023/12/10 05:10:13;;;;;;;29.38;5.95;;;7.70;99.90;;;;;;5003444;28;20063;-35
2023/12/10 05:12:39;;;;;;;20.67;3.85;;;7.70;99.90;;;;;;5005613;28;20042;-35
2023/12/10 05:15:05;;;;;;;27.42;4.78;;;7.70;99.90;;;;;;5000102;28;20050;-48
2023/12/10 05:17:30;;;;;;;22.17;4.53;;;7.70;99.90;;;;;;5001829;28;20060;-42
2023/12/10 05:19:56;;;;;;;23.90;4.10;;;7.70;99.90;;;;;;5002708;28;20093;-35
2023/12/10 05:22:23;;;;;;;25.40;4.43;;;7.60;99.90;;;;;;5000518;28;20045;-34
2023/12/10 05:24:49;;;;;;;25.45;4.10;;;7.70;99.90;;;;;;5003498;28;20050;-34
2023/12/10 05:27:15;;;;;;;27.50;4.30;;;7.70;99.90;;;;;;5006701;28;20087;-35
2023/12/10 05:29:40;;;;;;;24.40;3.85;;;7.70;99.90;;;;;;5002886;28;20046;-34
2023/12/10 05:32:06;;;;;;;25.15;5.88;;;7.70;99.90;;;;;;5005041;28;20107;-38
2023/12/10 05:34:32;;;;;;;35.38;5.38;;;7.70;99.90;;;;;;5004405;28;20172;-35
2023/12/10 05:36:58;;;;;;;29.15;5.40;;;7.60;99.90;;;;;;5004488;28;20136;-35
2023/12/10 05:39:24;;;;;;;29.15;4.68;;;7.60;99.90;;;;;;5003730;28;20049;-34
2023/12/10 05:41:49;;;;;;;34.53;5.65;;;7.60;99.90;;;;;;5002185;28;20435;-34
2023/12/10 05:44:15;;;;;;;27.05;5.18;;;7.60;99.90;;;;;;5003781;28;21550;-34
2023/12/10 05:46:41;;;;;;;32.53;5.63;;;7.60;99.90;;;;;;5003460;28;20052;-34
2023/12/10 05:49:06;;;;;;;33.45;5.43;;;7.60;99.90;;;;;;5005764;28;20056;-42
2023/12/10 05:51:32;;;;;;;32.05;5.13;;;7.70;99.90;;;;;;5004613;28;20056;-35
2023/12/10 05:53:58;;;;;;;29.38;4.40;;;7.60;99.90;;;;;;5002874;28;20054;-34
2023/12/10 05:56:24;;;;;;;28.38;5.28;;;7.60;99.90;;;;;;5003699;28;20093;-35
2023/12/10 05:58:49;;;;;;;37.63;5.90;;;7.60;99.90;;;;;;5008571;28;20076;-34
2023/12/10 06:01:15;;;;;;;26.23;4.63;;;7.60;99.90;;;;;;5000753;28;20046;-34
2023/12/10 06:03:41;;;;;;;26.50;3.90;;;7.60;99.90;;;;;;5001256;28;20476;-34
2023/12/10 06:06:07;;;;;;;37.92;5.35;;;7.70;99.90;;;;;;5001761;28;20054;-35
2023/12/10 06:08:32;;;;;;;26.55;4.97;;;7.70;99.90;;;;;;5003911;28;20050;-35
2023/12/10 06:10:58;;;;;;;31.48;5.20;;;7.70;99.90;;;;;;5006803;28;20104;-34
2023/12/10 06:13:24;;;;;;;24.88;5.03;;;7.70;99.90;;;;;;5006564;28;20046;-45
2023/12/10 06:15:50;;;;;;;26.60;5.63;;;7.70;99.90;;;;;;5006058;28;20108;-34
2023/12/10 06:18:15;;;;;;;21.20;3.72;;;7.70;99.90;;;;;;5007333;28;20132;-34
2023/12/10 06:20:41;;;;;;;25.83;4.15;;;7.70;99.90;;;;;;5004084;28;20416;-34
2023/12/10 06:23:07;;;;;;;20.65;4.13;;;7.70;99.90;;;;;;5003075;28;20500;-33
2023/12/10 06:25:33;;;;;;;18.80;3.47;;;7.70;99.90;;;;;;5008523;28;20054;-46
2023/12/10 06:27:58;;;;;;;20.65;4.35;;;7.70;99.90;;;;;;5005848;28;20523;-34
2023/12/10 06:30:24;;;;;;;17.70;4.57;;;7.80;99.90;;;;;;5004801;28;20137;-34
2023/12/10 06:32:50;;;;;;;22.80;3.80;;;7.90;99.90;;;;;;5006980;28;20049;-34
2023/12/10 06:35:16;;;;;;;14.07;3.00;;;7.90;99.90;;;;;;5003231;28;20053;-34
2023/12/10 06:37:42;;;;;;;19.00;3.88;;;7.90;99.90;;;;;;5006712;28;20057;-34
2023/12/10 06:40:09;;;;;;;23.73;3.63;;;7.90;99.90;;;;;;5000329;28;20060;-34
2023/12/10 06:42:35;;;;;;;20.10;4.22;;;7.90;99.90;;;;;;5006212;28;20069;-38
2023/12/10 06:45:03;;;;;;;23.23;4.78;;;7.90;99.90;;;;;;5007209;28;20474;-34
2023/12/10 06:47:28;;;;;;;17.83;3.30;;;8.00;99.90;;;;;;5006201;28;20455;-35
2023/12/10 06:49:55;;;;;;;18.05;3.65;;;8.00;99.90;;;;;;5007633;28;20046;-34
2023/12/10 06:52:20;;;;;;;24.73;3.80;;;8.00;99.90;;;;;;5006790;28;20058;-34
2023/12/10 06:54:46;;;;;;;21.38;2.90;;;8.00;99.90;;;;;;5005969;28;20511;-35
2023/12/10 06:57:12;;;;;;;17.98;3.78;;;7.90;99.90;;;;;;5004561;28;20070;-34
2023/12/10 06:59:38;;;;;;;22.73;4.07;;;7.90;99.90;;;;;;5008634;28;20072;-34
2023/12/10 07:02:04;;;;;;;20.05;4.22;;;7.90;99.90;;;;;;5003162;28;20057;-34
2023/12/10 07:04:29;;;;;;;20.95;3.22;;;7.90;99.90;;;;;;5005008;28;20073;-34
2023/12/10 07:06:55;;;;;;;17.85;3.28;;;7.90;99.90;;;;;;5005369;28;20046;-34
2023/12/10 07:09:21;;;;;;;17.50;3.38;;;7.80;99.90;;;;;;5007084;28;20463;-35
2023/12/10 07:11:47;;;;;;;17.85;2.88;;;7.80;99.90;;;;;;5006044;28;20500;-35
2023/12/10 07:14:13;;;;;;;15.60;2.65;;;7.80;99.90;;;;;;5005160;28;20510;-35
2023/12/10 07:16:38;;;;;;;13.98;2.22;;;7.80;99.90;;;;;;5002024;28;20349;-34
2023/12/10 07:19:04;;;;;;;15.50;3.33;;;7.80;99.90;;;;;;5004732;28;20049;-34
2023/12/10 07:21:30;;;;;;;12.63;2.10;;;7.80;99.90;;;;;;5003201;28;20058;-34
2023/12/10 07:23:55;;;;;;;17.38;3.22;;;7.80;99.90;;;;;;5005828;28;20500;-35
2023/12/10 07:26:25;;;;;;;17.02;2.83;;;7.80;99.90;;;;;;5001789;28;20046;-34
2023/12/10 07:28:52;;;;;;;15.57;2.72;;;7.70;99.90;;;;;;5006130;28;20049;-35
2023/12/10 07:31:21;;;;;;;17.15;3.25;;;7.70;99.90;;;;;;5004094;28;20120;-35
2023/12/10 07:33:46;;;;;;;20.38;3.55;;;7.70;99.90;;;;;;5005682;28;20499;-34
2023/12/10 07:36:12;;;;;;;30.85;4.43;;;7.60;99.90;;;;;;5005742;28;20490;-35
2023/12/10 07:38:38;;;;;;;29.40;4.53;;;7.60;99.90;;;;;;5006617;28;20045;-34
2023/12/10 07:41:04;;;;;;;28.77;4.68;;;7.60;99.90;;;;;;5004751;28;20148;-34
2023/12/10 07:43:31;;;;;;;26.52;4.82;;;7.70;99.90;;;;;;5005379;28;20534;-34
2023/12/10 07:45:57;;;;;;;32.78;5.28;;;7.70;99.90;;;;;;5006827;28;20468;-34
2023/12/10 07:48:23;;;;;;;34.95;5.70;;;7.70;99.90;;;;;;5005144;28;20053;-35
2023/12/10 07:50:49;;;;;;;30.45;5.30;;;7.70;99.90;;;;;;5005017;28;20052;-34
2023/12/10 07:53:16;;;;;;;34.72;5.53;;;7.70;99.90;;;;;;5019683;28;20408;-41
2023/12/10 07:55:42;;;;;;;29.63;5.50;;;7.70;99.90;;;;;;5003670;28;20050;-37
2023/12/10 07:58:08;;;;;;;29.85;5.25;;;7.70;99.90;;;;;;5005889;28;20053;-34
2023/12/10 08:00:34;;;;;;;30.27;5.07;;;7.70;99.90;;;;;;5002676;28;20554;-35
2023/12/10 08:02:59;;;;;;;26.23;5.07;;;7.80;99.90;;;;;;5004050;28;20537;-35
2023/12/10 08:05:25;;;;;;;31.15;5.95;;;7.80;99.90;;;;;;5004660;28;20053;-35
2023/12/10 08:07:51;;;;;;;38.47;6.07;;;7.80;99.90;;;;;;5004804;28;20176;-35
2023/12/10 08:10:18;;;;;;;35.40;5.25;;;7.70;99.90;;;;;;5004779;28;20058;-35
2023/12/10 08:12:44;;;;;;;29.42;5.00;;;7.60;99.90;;;;;;5003968;28;20147;-39
2023/12/10 08:15:10;;;;;;;29.08;5.65;;;7.60;99.90;;;;;;5004366;28;20065;-35
2023/12/10 08:17:35;;;;;;;34.10;5.22;;;7.50;99.90;;;;;;5004004;28;20057;-34
2023/12/10 08:20:02;;;;;;;27.88;4.50;;;7.40;99.90;;;;;;5005037;28;20058;-35
2023/12/10 08:22:28;;;;;;;36.80;5.30;;;7.40;99.90;;;;;;5001445;28;20140;-35
2023/12/10 08:24:54;;;;;;;25.85;5.00;;;7.40;99.90;;;;;;5003804;28;20575;-35
2023/12/10 08:27:20;;;;;;;25.58;5.00;;;7.40;99.90;;;;;;5001598;28;20141;-35
2023/12/10 08:29:46;;;;;;;34.80;5.82;;;7.40;99.90;;;;;;5004839;28;20049;-35
2023/12/10 08:32:11;;;;;;;24.23;4.78;;;7.40;99.90;;;;;;5001404;28;20061;-35
2023/12/10 08:34:38;;;;;;;30.95;5.43;;;7.40;99.90;;;;;;5001249;28;20073;-51
2023/12/10 08:37:04;;;;;;;27.92;5.00;;;7.40;99.90;;;;;;5001796;28;20496;-35
2023/12/10 08:39:29;;;;;;;28.15;5.53;;;7.50;99.90;;;;;;5005706;28;20192;-35
2023/12/10 08:41:55;;;;;;;29.75;5.80;;;7.50;99.90;;;;;;5003524;28;20066;-34
2023/12/10 08:44:21;;;;;;;25.50;5.15;;;7.60;99.90;;;;;;5001595;28;20179;-35
2023/12/10 08:46:47;;;;;;;26.40;4.40;;;7.60;99.90;;;;;;5001310;28;20065;-35
2023/12/10 08:49:12;;;;;;;29.75;5.15;;;7.60;99.90;;;;;;5005900;28;20046;-46
2023/12/10 08:51:38;;;;;;;34.38;5.00;;;7.60;99.90;;;;;;5001689;28;20465;-35
2023/12/10 08:54:04;;;;;;;35.10;5.38;;;7.50;99.90;;;;;;5002910;28;21002;-34
2023/12/10 08:56:29;;;;;;;33.78;6.10;;;7.60;99.90;;;;;;5000133;28;20411;-35
2023/12/10 08:58:55;;;;;;;25.63;4.70;;;7.60;99.90;;;;;;4999641;28;20489;-35
2023/12/10 09:01:21;;;;;;;29.27;5.38;;;7.60;99.90;;;;;;5002218;28;20054;-35
2023/12/10 09:03:47;;;;;;;33.42;4.32;;;7.60;99.90;;;;;;5002029;28;20050;-35
2023/12/10 09:06:13;;;;;;;27.98;6.05;;;7.60;99.90;;;;;;5003019;28;20046;-50
2023/12/10 09:08:39;;;;;;;27.05;5.53;;;7.60;99.90;;;;;;5002511;28;20100;-35
2023/12/10 09:11:05;;;;;;;30.50;5.00;;;7.70;99.90;;;;;;5004381;28;20213;-35
2023/12/10 09:13:32;;;;;;;25.95;4.78;;;7.70;99.90;;;;;;5004274;28;20503;-35
2023/12/10 09:15:58;;;;;;;29.75;6.15;;;7.70;99.90;;;;;;5015664;28;20041;-35
2023/12/10 09:18:25;;;;;;;29.60;5.60;;;7.70;99.90;;;;;;5003183;28;20104;-34
2023/12/10 09:20:51;;;;;;;28.27;4.97;;;7.70;99.90;;;;;;5001131;28;20081;-35
2023/12/10 09:23:17;;;;;;;28.08;4.55;;;7.70;99.90;;;;;;5003978;28;20060;-36
2023/12/10 09:25:42;;;;;;;22.48;4.70;;;7.70;99.90;;;;;;5002671;28;20507;-35
2023/12/10 09:28:08;;;;;;;26.35;4.95;;;7.70;99.90;;;;;;5005178;28;20057;-35
2023/12/10 09:30:34;;;;;;;26.90;4.60;;;7.70;99.90;;;;;;5003531;28;20050;-35
2023/12/10 09:33:00;;;;;;;20.75;3.95;;;7.70;99.90;;;;;;5005207;28;20124;-35
2023/12/10 09:35:25;;;;;;;25.92;5.10;;;7.80;99.90;;;;;;5003514;28;20049;-35
2023/12/10 09:37:51;;;;;;;21.23;5.72;;;7.80;99.90;;;;;;5006253;28;20516;-35
2023/12/10 09:40:17;;;;;;;20.65;4.10;;;7.80;99.90;;;;;;5002086;28;20516;-36
2023/12/10 09:42:43;;;;;;;29.58;5.10;;;7.80;99.90;;;;;;5004629;28;20049;-36
2023/12/10 09:45:09;;;;;;;23.02;3.95;;;7.80;99.90;;;;;;5008111;28;20041;-35
2023/12/10 09:47:35;;;;;;;19.95;4.13;;;7.90;99.90;;;;;;5008898;28;20081;-35
2023/12/10 09:50:02;;;;;;;29.23;5.30;;;7.90;99.90;;;;;;5010496;28;20506;-35
2023/12/10 09:52:28;;;;;;;24.63;4.05;;;7.90;99.90;;;;;;5020883;28;20049;-35
2023/12/10 09:54:54;;;;;;;22.52;4.57;;;7.90;99.90;;;;;;5009367;28;20496;-36
2023/12/10 09:57:21;;;;;;;19.13;3.42;;;7.90;99.90;;;;;;5010590;28;20054;-36
2023/12/10 09:59:47;;;;;;;20.92;3.65;;;7.90;99.90;;;;;;5007929;28;20052;-48
2023/12/10 10:02:15;;;;;;;22.63;4.28;;;7.90;99.90;;;;;;5002993;28;20054;-35
2023/12/10 10:04:42;;;;;;;23.58;4.50;;;7.90;99.90;;;;;;5006511;28;20495;-35
2023/12/10 10:07:08;;;;;;;23.55;4.53;;;8.00;99.90;;;;;;5011241;28;20512;-35
2023/12/10 10:09:37;;;;;;;24.05;3.65;;;8.00;99.90;;;;;;5004041;28;20492;-35
2023/12/10 10:12:03;;;;;;;20.63;3.83;;;8.00;99.90;;;;;;5007649;28;20188;-35
2023/12/10 10:14:29;;;;;;;22.33;4.45;;;8.00;99.90;;;;;;5005439;28;20054;-35
2023/12/10 10:16:54;;;;;;;21.83;4.22;;;7.90;99.90;;;;;;5003044;28;20938;-36
2023/12/10 10:19:20;;;;;;;18.10;3.13;;;7.90;99.90;;;;;;5006053;28;20053;-35
2023/12/10 10:21:46;;;;;;;20.80;3.72;;;7.90;99.90;;;;;;5006503;28;20069;-35
2023/12/10 10:24:12;;;;;;;21.13;3.13;;;8.00;99.90;;;;;;5004269;28;20054;-35
2023/12/10 10:26:39;;;;;;;22.42;4.13;;;8.00;99.90;;;;;;5007868;28;20048;-35
2023/12/10 10:29:06;;;;;;;20.52;3.20;;;8.10;99.90;;;;;;5007350;28;20056;-36
2023/12/10 10:31:33;;;;;;;19.30;3.13;;;8.10;99.90;;;;;;5008845;28;20053;-35
2023/12/10 10:34:04;;;;;;;19.48;4.07;;;8.30;99.90;;;;;;5012397;28;20100;-36
2023/12/10 10:36:31;;;;;;;20.38;3.70;;;8.30;99.90;;;;;;5005311;28;20046;-35
2023/12/10 10:38:57;;;;;;;20.58;3.47;;;8.40;99.90;;;;;;5009738;28;20050;-36
2023/12/10 10:41:25;;;;;;;19.83;4.05;;;8.40;99.90;;;;;;5008666;28;20058;-40
2023/12/10 10:43:50;;;;;;;18.08;3.75;;;8.50;99.90;;;;;;5010901;28;20046;-35
2023/12/10 10:46:20;;;;;;;21.77;3.38;;;8.40;99.90;;;;;;5009623;28;20057;-35
2023/12/10 10:48:51;;;;;;;24.70;3.42;;;8.40;99.90;;;;;;5012642;28;20053;-35
2023/12/10 10:51:29;;;;;;;17.38;3.47;;;8.40;99.90;;;;;;5014439;28;20053;-35
2023/12/10 10:53:58;;;;;;;21.60;3.60;;;8.40;99.90;;;;;;5015413;28;21210;-35
2023/12/10 10:56:24;;;;;;;18.13;3.53;;;8.50;99.90;;;;;;5006838;28;20806;-35
2023/12/10 10:58:50;;;;;;;20.55;4.00;;;8.50;99.90;;;;;;5002875;28;20050;-35
2023/12/10 11:01:35;;;;;;;17.60;3.03;;;8.40;99.90;;;;;;5008148;28;20056;-36
2023/12/10 11:04:01;;;;;;;20.88;3.85;;;8.40;99.90;;;;;;5004133;28;20054;-36
2023/12/10 11:06:27;;;;;;;19.05;3.45;;;8.40;99.90;;;;;;5009461;28;20412;-35
2023/12/10 11:08:59;;;;;;;22.65;3.08;;;8.40;99.90;;;;;;5005099;28;20049;-35
2023/12/10 11:11:26;;;;;;;19.55;4.38;;;8.40;99.90;;;;;;5007613;28;20084;-36
2023/12/10 11:13:53;;;;;;;26.52;3.80;;;8.40;99.90;;;;;;5004671;28;20526;-35
2023/12/10 11:16:21;;;;;;;20.88;4.10;;;8.40;99.90;;;;;;5006333;28;20056;-35
2023/12/10 11:18:51;;;;;;;20.65;3.70;;;8.40;99.90;;;;;;5003074;28;20054;-35
2023/12/10 11:21:17;;;;;;;14.80;3.15;;;8.40;99.90;;;;;;5004949;28;20073;-36
2023/12/10 11:23:42;;;;;;;17.13;3.20;;;8.40;99.90;;;;;;5006101;28;20050;-35
2023/12/10 11:26:08;;;;;;;23.92;3.58;;;8.40;99.90;;;;;;5004366;28;20649;-36
2023/12/10 11:28:34;;;;;;;22.63;3.83;;;8.40;99.90;;;;;;5004424;28;20116;-37
2023/12/10 11:31:00;;;;;;;20.52;3.80;;;8.40;99.90;;;;;;5005949;28;20141;-35
2023/12/10 11:33:27;;;;;;;18.95;3.53;;;8.50;99.90;;;;;;5008119;28;20492;-36
2023/12/10 11:35:57;;;;;;;20.95;3.85;;;8.40;99.90;;;;;;4982462;28;20078;-35
2023/12/10 11:38:26;;;;;;;13.35;3.13;;;8.50;99.90;;;;;;5009646;28;20506;-34
2023/12/10 11:40:52;;;;;;;18.52;3.63;;;8.50;99.90;;;;;;5006819;28;20077;-34
2023/12/10 11:43:19;;;;;;;20.30;3.97;;;8.60;99.90;;;;;;5003018;28;20121;-35
2023/12/10 11:45:45;;;;;;;22.45;3.78;;;8.60;99.90;;;;;;5013665;28;20046;-34
2023/12/10 11:48:10;;;;;;;22.83;3.15;;;8.60;99.90;;;;;;5008576;28;20373;-34
2023/12/10 11:50:37;;;;;;;21.63;3.25;;;8.60;99.90;;;;;;5006718;28;20435;-34
2023/12/10 11:53:03;;;;;;;21.17;3.13;;;8.60;99.90;;;;;;5002888;28;20050;-34
2023/12/10 11:55:30;;;;;;;17.42;3.60;;;8.60;99.90;;;;;;5002221;28;20484;-40
2023/12/10 11:57:56;;;;;;;13.07;2.60;;;8.60;99.90;;;;;;5016693;28;20104;-35
2023/12/10 12:00:23;;;;;;;12.32;2.78;;;8.60;99.90;;;;;;5008347;28;20065;-34
2023/12/10 12:02:49;;;;;;;12.48;2.45;;;8.60;99.90;;;;;;5009183;28;20064;-34
2023/12/10 12:05:16;;;;;;;17.38;2.70;;;8.70;99.90;;;;;;5006267;28;20476;-35
2023/12/10 12:07:42;;;;;;;16.77;2.75;;;8.60;99.90;;;;;;5003674;28;20057;-34
2023/12/10 12:10:12;;;;;;;20.73;2.72;;;8.60;99.90;;;;;;5009042;28;20385;-34
2023/12/10 12:12:42;;;;;;;11.95;2.10;;;8.60;99.90;;;;;;5006551;28;20407;-34
2023/12/10 12:15:13;;;;;;;16.67;3.13;;;8.60;99.90;;;;;;5006152;28;20049;-36
2023/12/10 12:17:40;;;;;;;12.80;2.45;;;8.60;99.90;;;;;;5006731;28;20041;-34
2023/12/10 12:20:24;;;;;;;14.65;2.50;;;8.60;99.90;;;;;;5004922;28;20581;-41
2023/12/10 12:22:50;;;;;;;13.35;2.92;;;8.60;99.90;;;;;;5005447;28;20606;-34
2023/12/10 12:25:16;;;;;;;14.38;2.53;;;8.60;99.90;;;;;;5006254;28;20133;-34
2023/12/10 12:27:43;;;;;;;13.52;2.22;;;8.60;99.90;;;;;;5007249;28;20073;-34
2023/12/10 12:30:09;;;;;;;12.50;1.83;;;8.60;99.90;;;;;;5005274;28;20042;-34
2023/12/10 12:32:35;;;;;;;9.63;2.45;;;8.60;99.90;;;;;;5013870;28;20049;-34
2023/12/10 12:35:01;;;;;;;18.73;3.20;;;8.70;99.90;;;;;;5003992;28;20061;-35
2023/12/10 12:37:27;;;;;;;17.15;2.40;;;8.60;99.90;;;;;;5005368;28;20092;-35
2023/12/10 12:39:54;;;;;;;13.80;2.92;;;8.60;99.90;;;;;;5006049;28;20519;-44
2023/12/10 12:42:20;;;;;;;13.20;2.72;;;8.70;99.90;;;;;;5004041;28;20084;-36